createdAt,value
2022-10-18T00:00:51.242Z,15.70
2022-10-18T00:03:18.925Z,15.70
2022-10-18T00:05:47.541Z,15.70
2022-10-18T00:08:17.042Z,15.70
2022-10-18T00:10:44.898Z,15.70
2022-10-18T00:13:13.010Z,15.70
2022-10-18T00:15:41.005Z,15.70
2022-10-18T00:18:08.796Z,15.60
2022-10-18T00:20:36.852Z,15.60
2022-10-18T00:23:04.663Z,15.60
2022-10-18T00:25:33.778Z,15.50
2022-10-18T00:28:01.565Z,15.50
2022-10-18T00:30:29.261Z,15.50
2022-10-18T00:32:56.949Z,15.60
2022-10-18T00:35:24.925Z,15.50
2022-10-18T00:37:52.640Z,15.50
2022-10-18T00:40:20.423Z,15.50
2022-10-18T00:42:49.427Z,15.50
2022-10-18T00:45:21.205Z,15.60
2022-10-18T00:47:54.085Z,15.60
2022-10-18T00:50:23.549Z,15.70
2022-10-18T00:52:55.011Z,15.70
2022-10-18T00:55:23.299Z,15.70
2022-10-18T01:00:25.988Z,15.60
2022-10-18T01:02:53.684Z,15.50
2022-10-18T01:05:21.913Z,15.50
2022-10-18T01:08:18.548Z,15.40
2022-10-18T01:10:55.366Z,15.40
2022-10-18T01:13:36.177Z,15.30
2022-10-18T01:16:11.718Z,15.30
2022-10-18T01:18:45.324Z,15.20
2022-10-18T01:21:41.074Z,15.20
2022-10-18T01:24:51.771Z,15.20
2022-10-18T01:27:36.710Z,15.10
2022-10-18T01:30:33.445Z,15.10
2022-10-18T01:33:06.169Z,15.00
2022-10-18T01:35:40.165Z,15.00
2022-10-18T01:38:12.539Z,15.00
2022-10-18T01:40:43.106Z,15.00
2022-10-18T01:43:11.640Z,15.00
2022-10-18T01:45:41.333Z,15.00
2022-10-18T01:48:11.464Z,15.00
2022-10-18T01:50:39.267Z,15.00
2022-10-18T01:53:06.936Z,15.00
2022-10-18T01:55:39.672Z,15.10
2022-10-18T01:58:16.549Z,15.10
2022-10-18T02:00:46.838Z,15.20
2022-10-18T02:03:22.272Z,15.30
2022-10-18T02:05:55.730Z,15.30
2022-10-18T02:08:29.670Z,15.40
2022-10-18T02:11:01.730Z,15.30
2022-10-18T02:13:33.725Z,15.30
2022-10-18T02:22:34.410Z,15.10
2022-10-18T02:25:05.768Z,15.00
2022-10-18T02:27:33.926Z,15.00
2022-10-18T02:30:01.781Z,15.00
2022-10-18T02:32:35.878Z,15.00
2022-10-18T02:35:08.058Z,15.00
2022-10-18T02:37:40.044Z,15.00
2022-10-18T02:40:10.695Z,14.90
2022-10-18T02:42:41.036Z,14.90
2022-10-18T02:45:09.262Z,14.90
2022-10-18T02:47:37.091Z,14.90
2022-10-18T02:50:05.374Z,14.90
2022-10-18T02:52:33.189Z,14.90
2022-10-18T02:55:02.292Z,15.00
2022-10-18T02:57:30.383Z,15.10
2022-10-18T02:59:58.578Z,15.20
2022-10-18T03:02:26.621Z,15.20
2022-10-18T03:04:54.485Z,15.30
2022-10-18T03:07:22.308Z,15.40
2022-10-18T03:09:50.142Z,15.40
2022-10-18T03:12:19.309Z,15.40
2022-10-18T03:14:47.078Z,15.40
2022-10-18T03:17:14.925Z,15.40
2022-10-18T03:19:42.658Z,15.40
2022-10-18T03:22:10.381Z,15.40
2022-10-18T03:24:38.114Z,15.30
2022-10-18T03:27:06.009Z,15.30
2022-10-18T03:29:35.182Z,15.40
2022-10-18T03:32:02.969Z,15.40
2022-10-18T03:34:30.710Z,15.40
2022-10-18T03:37:02.062Z,15.50
2022-10-18T03:39:32.572Z,15.50
2022-10-18T03:42:00.291Z,15.50
2022-10-18T03:44:28.053Z,15.50
2022-10-18T03:46:57.164Z,15.50
2022-10-18T03:49:25.079Z,15.50
2022-10-18T03:51:52.866Z,15.50
2022-10-18T03:54:21.438Z,15.50
2022-10-18T03:56:49.261Z,15.40
2022-10-18T03:59:17.764Z,15.40
2022-10-18T04:01:45.574Z,15.30
2022-10-18T04:04:14.777Z,15.30
2022-10-18T04:06:42.649Z,15.20
2022-10-18T04:09:11.048Z,15.10
2022-10-18T04:11:38.822Z,15.00
2022-10-18T04:14:06.645Z,15.00
2022-10-18T04:19:02.274Z,14.80
2022-10-18T04:21:31.417Z,14.80
2022-10-18T04:23:59.293Z,14.80
2022-10-18T04:26:27.201Z,14.70
2022-10-18T04:28:54.990Z,14.70
2022-10-18T04:31:22.847Z,14.60
2022-10-18T04:33:50.729Z,14.60
2022-10-18T04:36:18.515Z,14.60
2022-10-18T04:38:47.789Z,14.60
2022-10-18T04:41:15.663Z,14.60
2022-10-18T04:51:12.189Z,14.50
2022-10-18T04:54:29.031Z,14.50
2022-10-18T04:56:58.687Z,14.50
2022-10-18T04:59:26.558Z,14.60
2022-10-18T05:02:01.363Z,14.60
2022-10-18T05:04:29.183Z,14.60
2022-10-18T05:06:57.210Z,14.60
2022-10-18T05:09:25.039Z,14.70
2022-10-18T05:11:52.955Z,14.80
2022-10-18T05:14:22.125Z,14.80
2022-10-18T05:16:50.090Z,14.80
2022-10-18T05:19:17.919Z,14.80
2022-10-18T05:21:45.653Z,14.80
2022-10-18T05:24:13.663Z,14.80
2022-10-18T05:26:41.489Z,14.80
2022-10-18T05:29:09.368Z,14.90
2022-10-18T05:31:39.170Z,15.00
2022-10-18T05:34:07.040Z,15.00
2022-10-18T05:36:34.817Z,15.10
2022-10-18T05:39:05.204Z,15.10
2022-10-18T05:41:33.480Z,15.10
2022-10-18T05:44:04.952Z,15.10
2022-10-18T05:46:32.958Z,15.10
2022-10-18T05:49:02.207Z,15.10
2022-10-18T05:51:29.996Z,15.10
2022-10-18T05:53:58.707Z,15.20
2022-10-18T05:56:26.622Z,15.20
2022-10-18T05:58:54.519Z,15.20
2022-10-18T06:01:22.488Z,15.20
2022-10-18T06:03:51.378Z,15.20
2022-10-18T06:06:20.611Z,15.20
2022-10-18T06:09:07.197Z,15.20
2022-10-18T06:11:39.984Z,15.20
2022-10-18T06:14:24.447Z,15.20
2022-10-18T06:16:55.470Z,15.20
2022-10-18T06:19:36.697Z,15.20
2022-10-18T06:22:08.569Z,15.30
2022-10-18T06:25:14.062Z,15.30
2022-10-18T06:28:22.815Z,15.30
2022-10-18T06:37:15.017Z,15.50
2022-10-18T06:39:42.879Z,15.30
2022-10-18T06:42:10.803Z,15.30
2022-10-18T06:44:41.394Z,15.20
2022-10-18T06:47:09.383Z,15.20
2022-10-18T06:49:37.215Z,15.20
2022-10-18T06:52:07.326Z,15.20
2022-10-18T06:54:36.806Z,15.30
2022-10-18T06:57:05.175Z,15.30
2022-10-18T06:59:33.743Z,15.30
2022-10-18T07:02:02.346Z,15.30
2022-10-18T07:04:33.997Z,15.30
2022-10-18T07:07:09.954Z,15.30
2022-10-18T07:09:39.871Z,15.30
2022-10-18T07:12:08.308Z,15.40
2022-10-18T07:14:41.854Z,15.50
2022-10-18T07:17:10.602Z,15.50
2022-10-18T07:19:49.498Z,15.50
2022-10-18T07:22:30.491Z,15.50
2022-10-18T07:25:27.117Z,15.50
2022-10-18T07:27:58.148Z,15.60
2022-10-18T07:30:38.726Z,15.70
2022-10-18T07:33:06.933Z,15.70
2022-10-18T07:35:37.471Z,15.70
2022-10-18T07:38:19.322Z,15.70
2022-10-18T07:40:49.118Z,15.70
2022-10-18T07:43:23.610Z,15.70
2022-10-18T07:46:38.358Z,15.80
2022-10-18T07:49:09.426Z,15.70
2022-10-18T07:51:46.190Z,15.70
2022-10-18T07:54:14.386Z,15.70
2022-10-18T07:56:47.409Z,15.70
2022-10-18T07:59:20.138Z,15.70
2022-10-18T08:01:51.198Z,15.70
2022-10-18T08:07:04.822Z,15.80
2022-10-18T08:09:32.528Z,15.90
2022-10-18T08:12:01.591Z,15.90
2022-10-18T08:14:29.343Z,15.90
2022-10-18T08:16:57.187Z,15.80
2022-10-18T08:19:25.018Z,15.80
2022-10-18T08:21:52.723Z,15.80
2022-10-18T08:24:20.427Z,15.80
2022-10-18T08:26:50.107Z,15.70
2022-10-18T08:29:23.848Z,15.70
2022-10-18T08:31:53.586Z,15.70
2022-10-18T08:34:21.269Z,15.70
2022-10-18T08:36:48.965Z,15.60
2022-10-18T08:39:16.884Z,15.60
2022-10-18T08:42:10.403Z,15.60
2022-10-18T08:44:44.406Z,15.60
2022-10-18T08:47:16.581Z,15.50
2022-10-18T08:49:47.608Z,15.50
2022-10-18T08:52:25.671Z,15.50
2022-10-18T08:55:02.016Z,15.50
2022-10-18T08:57:31.465Z,15.50
2022-10-18T09:00:00.711Z,15.40
2022-10-18T09:02:42.709Z,15.40
2022-10-18T09:05:23.543Z,15.30
2022-10-18T09:08:21.426Z,15.20
2022-10-18T09:11:03.538Z,15.20
2022-10-18T09:14:11.814Z,15.00
2022-10-18T09:16:47.736Z,14.90
2022-10-18T09:19:27.396Z,14.80
2022-10-18T09:21:56.620Z,14.80
2022-10-18T09:24:28.910Z,14.80
2022-10-18T09:27:02.391Z,14.70
2022-10-18T09:29:48.836Z,14.70
2022-10-18T09:32:27.629Z,14.70
2022-10-18T09:35:02.000Z,14.70
2022-10-18T09:37:33.751Z,14.70
2022-10-18T09:40:07.692Z,14.70
2022-10-18T09:42:40.297Z,14.80
2022-10-18T09:45:21.180Z,14.80
2022-10-18T09:47:56.262Z,14.90
2022-10-18T09:50:28.680Z,15.00
2022-10-18T09:53:07.946Z,15.10
2022-10-18T09:55:41.511Z,15.20
2022-10-18T09:58:12.300Z,15.20
2022-10-18T10:00:46.016Z,15.20
2022-10-18T10:03:15.857Z,15.30
2022-10-18T10:05:43.891Z,15.30
2022-10-18T10:08:12.289Z,15.30
2022-10-18T10:10:42.084Z,15.30
2022-10-18T10:13:17.619Z,15.30
2022-10-18T10:15:52.702Z,15.30
2022-10-18T10:18:24.309Z,15.30
2022-10-18T10:20:54.814Z,15.20
2022-10-18T10:23:25.989Z,15.20
2022-10-18T10:25:55.471Z,15.30
2022-10-18T10:28:26.989Z,15.30
2022-10-18T10:30:54.806Z,15.30
2022-10-18T10:33:36.011Z,15.40
2022-10-18T10:36:05.730Z,15.50
2022-10-18T10:38:33.674Z,15.50
2022-10-18T10:41:01.593Z,15.70
2022-10-18T10:43:37.747Z,15.80
2022-10-18T10:46:09.558Z,15.90
2022-10-18T10:48:47.661Z,15.90
2022-10-18T10:51:19.083Z,15.90
2022-10-18T10:53:52.578Z,15.90
2022-10-18T10:56:30.466Z,15.90
2022-10-18T10:59:05.450Z,15.90
2022-10-18T11:01:34.463Z,15.90
2022-10-18T11:04:24.197Z,15.90
2022-10-18T11:07:01.690Z,16.00
2022-10-18T11:09:43.220Z,16.10
2022-10-18T11:12:23.389Z,16.30
2022-10-18T11:15:00.271Z,16.30
2022-10-18T11:17:39.749Z,16.30
2022-10-18T11:20:22.258Z,16.20
2022-10-18T11:23:00.799Z,16.30
2022-10-18T11:25:49.578Z,16.30
2022-10-18T11:28:29.493Z,16.30
2022-10-18T11:31:16.952Z,16.30
2022-10-18T11:34:09.251Z,16.30
2022-10-18T11:36:54.835Z,16.30
2022-10-18T11:39:37.569Z,16.30
2022-10-18T11:42:17.697Z,16.30
2022-10-18T11:44:56.981Z,16.20
2022-10-18T11:47:30.920Z,16.10
2022-10-18T11:50:14.221Z,16.00
2022-10-18T11:52:57.681Z,15.90
2022-10-18T11:55:39.970Z,15.80
2022-10-18T11:58:24.322Z,15.80
2022-10-18T12:00:56.430Z,15.80
2022-10-18T12:03:34.549Z,15.80
2022-10-18T12:06:11.605Z,15.80
2022-10-18T12:08:43.752Z,15.80
2022-10-18T12:11:17.418Z,15.80
2022-10-18T12:13:49.694Z,15.80
2022-10-18T12:16:45.608Z,15.70
2022-10-18T12:19:23.420Z,15.80
2022-10-18T12:21:55.844Z,16.00
2022-10-18T12:24:28.562Z,16.20
2022-10-18T12:27:00.548Z,16.30
2022-10-18T12:29:33.193Z,16.50
2022-10-18T12:32:04.014Z,16.70
2022-10-18T12:34:36.661Z,16.80
2022-10-18T12:37:27.599Z,16.80
2022-10-18T12:40:18.760Z,16.80
2022-10-18T12:42:49.959Z,16.80
2022-10-18T12:45:30.168Z,16.70
2022-10-18T12:48:01.161Z,16.70
2022-10-18T12:50:32.529Z,16.60
2022-10-18T12:53:18.918Z,16.60
2022-10-18T12:55:51.563Z,16.60
2022-10-18T12:58:37.516Z,16.60
2022-10-18T13:01:07.819Z,16.50
2022-10-18T13:04:01.533Z,16.40
2022-10-18T13:07:12.542Z,16.40
2022-10-18T13:09:42.085Z,16.30
2022-10-18T13:12:56.284Z,16.30
2022-10-18T13:15:42.490Z,16.30
2022-10-18T13:18:21.394Z,16.30
2022-10-18T13:20:57.539Z,16.30
2022-10-18T13:23:38.885Z,16.50
2022-10-18T13:26:20.336Z,16.70
2022-10-18T13:28:58.697Z,16.90
2022-10-18T13:31:36.249Z,16.90
2022-10-18T13:34:26.387Z,16.80
2022-10-18T13:37:00.041Z,16.90
2022-10-18T13:39:28.816Z,16.80
2022-10-18T13:42:29.562Z,16.80
2022-10-18T13:45:41.086Z,16.80
2022-10-18T13:48:48.961Z,16.80
2022-10-18T13:51:43.566Z,16.70
2022-10-18T13:54:38.276Z,16.70
2022-10-18T13:57:25.836Z,16.70
2022-10-18T14:00:20.724Z,16.70
2022-10-18T14:03:43.944Z,16.80
2022-10-18T14:06:10.016Z,16.90
2022-10-18T14:08:43.596Z,17.00
2022-10-18T14:11:19.927Z,17.00
2022-10-18T14:13:52.850Z,17.00
2022-10-18T14:16:33.018Z,17.00
2022-10-18T14:19:09.369Z,17.00
2022-10-18T14:21:41.260Z,16.90
2022-10-18T14:24:19.991Z,16.90
2022-10-18T14:26:48.043Z,17.00
2022-10-18T14:29:20.338Z,16.90
2022-10-18T14:31:55.652Z,16.80
2022-10-18T14:34:23.494Z,16.70
2022-10-18T14:36:52.522Z,16.60
2022-10-18T14:39:23.105Z,16.50
2022-10-18T14:41:52.595Z,16.50
2022-10-18T14:44:25.508Z,16.40
2022-10-18T14:47:01.347Z,16.30
2022-10-18T14:49:29.683Z,16.10
2022-10-18T14:51:59.751Z,16.00
2022-10-18T14:54:34.437Z,15.90
2022-10-18T14:57:03.173Z,15.90
2022-10-18T14:59:33.127Z,15.90
2022-10-18T15:02:05.392Z,15.90
2022-10-18T15:04:33.869Z,15.80
2022-10-18T15:07:04.149Z,15.70
2022-10-18T15:09:33.815Z,15.70
2022-10-18T15:12:03.384Z,15.70
2022-10-18T15:14:34.171Z,15.70
2022-10-18T15:17:11.589Z,15.60
2022-10-18T15:19:42.135Z,15.50
2022-10-18T15:22:30.953Z,15.50
2022-10-18T15:25:30.830Z,15.60
2022-10-18T15:28:03.272Z,15.60
2022-10-18T15:30:39.132Z,15.60
2022-10-18T15:33:11.104Z,15.60
2022-10-18T15:35:40.213Z,15.60
2022-10-18T15:38:15.658Z,15.50
2022-10-18T15:40:44.209Z,15.40
2022-10-18T15:43:35.737Z,15.40
2022-10-18T15:46:07.440Z,15.40
2022-10-18T15:48:44.194Z,15.40
2022-10-18T15:51:33.942Z,15.40
2022-10-18T15:54:01.695Z,15.30
2022-10-18T15:56:35.755Z,15.40
2022-10-18T15:59:08.005Z,15.40
2022-10-18T16:01:40.633Z,15.50
2022-10-18T16:04:19.942Z,15.50
2022-10-18T16:06:47.779Z,15.50
2022-10-18T16:09:18.591Z,15.50
2022-10-18T16:11:47.033Z,15.50
2022-10-18T16:14:15.304Z,15.50
2022-10-18T16:16:43.260Z,15.40
2022-10-18T16:19:20.274Z,15.30
2022-10-18T16:21:52.028Z,15.20
2022-10-18T16:24:20.464Z,15.20
2022-10-18T16:26:48.873Z,15.10
2022-10-18T16:29:19.345Z,15.00
2022-10-18T16:31:47.526Z,14.90
2022-10-18T16:34:16.562Z,14.70
2022-10-18T16:36:44.608Z,14.60
2022-10-18T16:39:16.007Z,14.60
2022-10-18T16:41:44.062Z,14.50
2022-10-18T16:44:12.338Z,14.50
2022-10-18T16:46:40.853Z,14.50
2022-10-18T16:49:16.421Z,14.50
2022-10-18T16:51:45.582Z,14.60
2022-10-18T16:54:16.298Z,14.70
2022-10-18T16:56:44.078Z,14.80
2022-10-18T16:59:26.604Z,14.80
2022-10-18T17:01:54.517Z,14.80
2022-10-18T17:04:22.421Z,14.80
2022-10-18T17:06:59.382Z,14.90
2022-10-18T17:09:30.173Z,14.90
2022-10-18T17:12:00.412Z,15.00
2022-10-18T17:14:35.645Z,15.00
2022-10-18T17:17:03.409Z,15.00
2022-10-18T17:19:31.182Z,15.00
2022-10-18T17:22:02.730Z,15.00
2022-10-18T17:24:30.718Z,15.00
2022-10-18T17:26:58.714Z,15.00
2022-10-18T17:29:26.573Z,15.10
2022-10-18T17:31:54.407Z,15.10
2022-10-18T17:34:22.147Z,15.10
2022-10-18T17:36:54.773Z,15.10
2022-10-18T17:39:25.810Z,15.10
2022-10-18T17:41:55.407Z,15.10
2022-10-18T17:44:26.081Z,15.10
2022-10-18T17:46:54.397Z,15.20
2022-10-18T17:49:22.543Z,15.20
2022-10-18T17:51:52.759Z,15.10
2022-10-18T17:54:20.486Z,15.10
2022-10-18T17:56:52.336Z,15.10
2022-10-18T17:59:22.396Z,15.10
2022-10-18T18:01:50.261Z,15.10
2022-10-18T18:04:18.137Z,15.10
2022-10-18T18:06:45.928Z,15.20
2022-10-18T18:09:17.750Z,15.20
2022-10-18T18:11:48.218Z,15.20
2022-10-18T18:14:19.594Z,15.20
2022-10-18T18:16:51.206Z,15.20
2022-10-18T18:19:21.025Z,15.20
2022-10-18T18:21:53.467Z,15.20
2022-10-18T18:24:24.612Z,15.10
2022-10-18T18:26:56.659Z,15.10
2022-10-18T18:29:27.381Z,15.10
2022-10-18T18:31:59.218Z,15.10
2022-10-18T18:34:27.068Z,15.10
2022-10-18T18:36:54.772Z,15.10
2022-10-18T18:39:25.231Z,15.10
2022-10-18T18:41:54.158Z,15.10
2022-10-18T18:44:25.554Z,15.10
2022-10-18T18:46:56.046Z,15.00
2022-10-18T18:49:25.300Z,15.00
2022-10-18T18:51:52.988Z,15.00
2022-10-18T18:54:21.982Z,15.00
2022-10-18T18:56:51.987Z,14.90
2022-10-18T18:59:20.085Z,14.90
2022-10-18T19:01:47.941Z,14.90
2022-10-18T19:04:17.253Z,14.90
2022-10-18T19:06:46.400Z,14.90
2022-10-18T19:09:19.400Z,14.90
2022-10-18T19:11:48.621Z,14.80
2022-10-18T19:14:16.662Z,14.70
2022-10-18T19:16:48.470Z,14.60
2022-10-18T19:19:19.397Z,14.50
2022-10-18T19:21:49.072Z,14.50
2022-10-18T19:24:17.186Z,14.50
2022-10-18T19:26:47.273Z,14.50
2022-10-18T19:29:21.212Z,14.50
2022-10-18T19:31:52.269Z,14.50
2022-10-18T19:34:24.122Z,14.50
2022-10-18T19:36:52.505Z,14.60
2022-10-18T19:39:21.773Z,14.60
2022-10-18T19:41:51.436Z,14.60
2022-10-18T19:44:20.223Z,14.60
2022-10-18T19:46:48.647Z,14.70
2022-10-18T19:49:17.139Z,14.70
2022-10-18T19:51:46.373Z,14.70
2022-10-18T19:54:15.830Z,14.70
2022-10-18T19:56:44.013Z,14.70
2022-10-18T19:59:15.780Z,14.70
2022-10-18T20:01:44.045Z,14.70
2022-10-18T20:04:15.185Z,14.70
2022-10-18T20:06:43.473Z,14.70
2022-10-18T20:09:16.262Z,14.70
2022-10-18T20:11:47.679Z,14.70
2022-10-18T20:14:15.396Z,14.70
2022-10-18T20:16:48.325Z,14.70
2022-10-18T20:19:16.200Z,14.70
2022-10-18T20:21:43.944Z,14.70
2022-10-18T20:24:13.275Z,14.60
2022-10-18T20:26:43.659Z,14.60
2022-10-18T20:29:11.894Z,14.60
2022-10-18T20:31:42.771Z,14.50
2022-10-18T20:34:13.185Z,14.40
2022-10-18T20:36:42.843Z,14.40
2022-10-18T20:39:14.604Z,14.40
2022-10-18T20:41:42.743Z,14.40
2022-10-18T20:44:15.862Z,14.40
2022-10-18T20:46:44.736Z,14.30
2022-10-18T20:49:18.371Z,14.20
2022-10-18T20:51:46.203Z,14.20
2022-10-18T20:54:17.189Z,14.10
2022-10-18T20:56:47.195Z,14.00
2022-10-18T20:59:15.062Z,13.80
2022-10-18T21:01:43.071Z,13.60
2022-10-18T21:04:11.799Z,13.40
2022-10-18T21:06:42.006Z,13.30
2022-10-18T21:09:12.177Z,13.20
2022-10-18T21:11:43.035Z,13.10
2022-10-18T21:14:13.492Z,13.00
2022-10-18T21:16:42.800Z,13.00
2022-10-18T21:19:13.367Z,13.00
2022-10-18T21:21:42.354Z,13.00
2022-10-18T21:24:10.261Z,13.00
2022-10-18T21:26:37.994Z,13.10
2022-10-18T21:29:07.463Z,13.20
2022-10-18T21:31:37.044Z,13.30
2022-10-18T21:34:07.167Z,13.40
2022-10-18T21:36:36.024Z,13.40
2022-10-18T21:39:04.522Z,13.30
2022-10-18T21:41:33.111Z,13.20
2022-10-18T21:44:02.661Z,13.20
2022-10-18T21:46:32.638Z,13.20
2022-10-18T21:49:00.421Z,13.20
2022-10-18T21:51:29.212Z,13.40
2022-10-18T21:53:58.877Z,13.40
2022-10-18T21:56:28.300Z,13.40
2022-10-18T21:58:56.594Z,13.40
2022-10-18T22:01:26.578Z,13.40
2022-10-18T22:03:57.276Z,13.40
2022-10-18T22:06:26.764Z,13.40
2022-10-18T22:08:56.701Z,13.40
2022-10-18T22:11:27.121Z,13.50
2022-10-18T22:13:55.364Z,13.50
2022-10-18T22:16:23.561Z,13.50
2022-10-18T22:18:52.164Z,13.50
2022-10-18T22:21:25.141Z,13.50
2022-10-18T22:23:57.194Z,13.40
2022-10-18T22:26:27.290Z,13.20
2022-10-18T22:28:57.550Z,12.90
2022-10-18T22:31:30.093Z,12.70
2022-10-18T22:33:59.849Z,12.50
2022-10-18T22:36:29.330Z,12.40
2022-10-18T22:38:57.254Z,12.30
2022-10-18T22:41:27.094Z,12.30
2022-10-18T22:43:58.517Z,12.30
2022-10-18T22:46:28.891Z,12.20
2022-10-18T22:48:58.042Z,12.20
2022-10-18T22:51:26.287Z,12.30
2022-10-18T22:53:55.532Z,12.30
2022-10-18T22:56:24.436Z,12.30
2022-10-18T22:58:52.787Z,12.30
2022-10-18T23:01:22.949Z,12.30
2022-10-18T23:03:57.137Z,12.30
2022-10-18T23:06:26.893Z,12.30
2022-10-18T23:08:57.524Z,12.30
2022-10-18T23:11:26.923Z,12.20
2022-10-18T23:13:54.939Z,12.10
2022-10-18T23:16:23.180Z,12.10
2022-10-18T23:18:52.115Z,12.00
2022-10-18T23:21:21.034Z,11.90
2022-10-18T23:23:48.744Z,11.80
2022-10-18T23:26:20.378Z,11.90
2022-10-18T23:28:50.180Z,11.90
2022-10-18T23:31:20.057Z,12.00
2022-10-18T23:33:49.614Z,12.00
2022-10-18T23:36:18.016Z,12.00
2022-10-18T23:38:45.860Z,12.10
2022-10-18T23:41:15.031Z,12.10
2022-10-18T23:43:44.568Z,12.00
2022-10-18T23:46:13.691Z,12.10
2022-10-18T23:48:41.486Z,12.20
2022-10-18T23:51:10.242Z,12.30
2022-10-18T23:53:38.538Z,12.30
2022-10-18T23:56:08.611Z,12.40
2022-10-18T23:58:37.352Z,12.40
